Time;durP1;ratioP1;P1;durP2;ratioP2;P2;SDS_P1;SDS_P2;PMS_P1;PMS_P2;Temp;Humidity;BMP_temperature;BMP_pressure;BME280_temperature;BME280_humidity;BME280_pressure;Samples;Min_cycle;Max_cycle;Signal;HPM_P1;HPM_P2
2024/01/03 00:09:53;;;;;;;6.85;2.10;;;12.20;96.70;;;;;;4911661;29;20183;-72
2024/01/03 00:12:23;;;;;;;7.50;1.95;;;12.30;96.70;;;;;;4908769;29;20220;-72
2024/01/03 00:14:55;;;;;;;4.70;1.98;;;12.30;96.70;;;;;;4909003;29;20057;-71
2024/01/03 00:17:25;;;;;;;5.95;2.05;;;12.20;96.70;;;;;;4891399;29;20067;-72
2024/01/03 00:19:56;;;;;;;6.25;1.90;;;12.20;96.70;;;;;;4908901;29;20062;-72
2024/01/03 00:26:09;;;;;;;4.00;1.63;;;12.20;96.70;;;;;;4895204;29;20068;-72
2024/01/03 00:35:51;;;;;;;7.00;2.22;;;12.20;96.70;;;;;;4908558;29;20170;-72
2024/01/03 00:41:48;;;;;;;6.53;2.38;;;12.10;96.70;;;;;;4892200;29;20067;-72
2024/01/03 00:44:18;;;;;;;4.90;2.20;;;12.10;96.70;;;;;;4901906;29;20052;-72
2024/01/03 00:47:00;;;;;;;8.07;2.22;;;12.10;96.70;;;;;;4891798;29;20060;-72
2024/01/03 01:03:42;;;;;;;7.27;2.50;;;12.10;96.70;;;;;;4887358;29;20662;-72
2024/01/03 01:06:19;;;;;;;4.75;2.00;;;12.10;96.70;;;;;;4877383;29;20053;-72
2024/01/03 01:09:21;;;;;;;6.07;2.20;;;12.10;96.70;;;;;;4871976;29;20068;-72
2024/01/03 01:13:07;;;;;;;5.57;1.98;;;12.10;96.70;;;;;;4822222;29;20054;-72
2024/01/03 01:17:44;;;;;;;5.07;1.88;;;12.10;96.70;;;;;;4758656;30;20059;-72
2024/01/03 01:24:53;;;;;;;4.53;1.90;;;12.10;96.70;;;;;;4705240;30;20207;-73
2024/01/03 01:27:22;;;;;;;4.85;2.13;;;12.10;96.70;;;;;;4756758;30;20072;-71
2024/01/03 01:30:49;;;;;;;5.95;1.85;;;12.10;96.70;;;;;;4764029;30;20063;-71
2024/01/03 01:33:59;;;;;;;5.95;1.83;;;12.10;96.70;;;;;;4759393;30;20067;-72
2024/01/03 01:36:33;;;;;;;5.85;2.15;;;12.10;96.70;;;;;;4760428;30;20076;-72
2024/01/03 01:43:02;;;;;;;5.35;1.98;;;12.00;96.70;;;;;;4758768;30;20087;-72
2024/01/03 01:52:58;;;;;;;5.47;1.13;;;12.00;96.70;;;;;;4858579;29;20088;-72
2024/01/03 01:56:13;;;;;;;3.85;1.10;;;11.90;96.70;;;;;;4832946;29;20844;-72
2024/01/03 02:04:19;;;;;;;6.03;1.58;;;11.90;96.70;;;;;;4831398;29;20225;-73
2024/01/03 02:08:21;;;;;;;6.30;1.13;;;11.90;96.70;;;;;;4865005;29;20550;-72
2024/01/03 02:10:59;;;;;;;4.93;1.50;;;11.90;96.70;;;;;;4875283;29;20056;-72
2024/01/03 02:14:10;;;;;;;4.03;1.17;;;11.80;96.70;;;;;;4833674;29;20069;-72
2024/01/03 02:44:57;;;;;;;;;;;11.40;96.70;;;;;;4891984;29;20080;-72
2024/01/03 02:51:43;;;;;;;2.65;0.88;;;11.30;96.70;;;;;;4892096;29;20071;-74
2024/01/03 02:54:21;;;;;;;3.35;1.33;;;11.40;96.70;;;;;;4902439;29;20060;-72
2024/01/03 02:57:32;;;;;;;3.03;0.80;;;11.40;96.70;;;;;;4911587;29;20075;-73
2024/01/03 03:00:01;;;;;;;3.70;1.33;;;11.40;96.70;;;;;;4879408;29;20063;-71
2024/01/03 03:02:35;;;;;;;2.25;0.77;;;11.50;96.70;;;;;;4910883;29;20087;-73
2024/01/03 03:09:55;;;;;;;4.15;1.00;;;11.50;96.70;;;;;;4903699;29;20040;-73
2024/01/03 03:12:24;;;;;;;;;;;11.50;96.70;;;;;;4858194;29;20060;-73
2024/01/03 03:14:53;;;;;;;5.95;1.52;;;11.50;96.70;;;;;;4910373;29;19938;-73
2024/01/03 03:17:40;;;;;;;3.22;1.35;;;11.50;96.70;;;;;;4893530;29;20095;-73
2024/01/03 03:21:40;;;;;;;4.20;1.48;;;11.60;96.70;;;;;;4891090;29;20110;-72
2024/01/03 03:24:25;;;;;;;3.95;1.00;;;11.60;96.70;;;;;;4826449;29;20065;-73
2024/01/03 03:27:04;;;;;;;3.55;0.90;;;11.50;96.70;;;;;;4870097;29;20095;-73
2024/01/03 03:29:34;;;;;;;4.07;1.13;;;11.50;96.70;;;;;;4895441;29;20059;-73
2024/01/03 03:32:47;;;;;;;5.55;1.08;;;11.60;96.70;;;;;;4906289;29;20150;-73
2024/01/03 03:35:29;;;;;;;4.80;1.10;;;11.60;96.70;;;;;;4909817;29;20060;-74
2024/01/03 03:38:47;;;;;;;6.03;1.15;;;11.50;96.70;;;;;;4907169;29;20506;-73
2024/01/03 03:41:19;;;;;;;3.55;0.88;;;11.50;96.70;;;;;;4908570;29;20060;-73
2024/01/03 03:43:49;;;;;;;3.95;1.00;;;11.50;96.70;;;;;;4910617;29;20060;-73
2024/01/03 03:46:37;;;;;;;4.25;1.00;;;11.50;96.70;;;;;;4910741;29;20052;-72
2024/01/03 03:49:12;;;;;;;3.53;0.90;;;11.60;96.70;;;;;;4893329;29;20060;-73
2024/01/03 03:51:44;;;;;;;2.58;0.98;;;11.60;96.70;;;;;;4893713;29;20127;-73
2024/01/03 03:54:15;;;;;;;2.90;0.73;;;11.50;96.70;;;;;;4899151;29;20866;-73
2024/01/03 03:56:53;;;;;;;3.20;0.95;;;11.50;96.70;;;;;;4891888;29;20064;-73
2024/01/03 03:59:22;;;;;;;2.75;0.65;;;11.50;96.70;;;;;;4881475;29;20067;-73
2024/01/03 04:01:57;;;;;;;2.17;0.55;;;11.50;96.70;;;;;;4891386;29;20080;-73
2024/01/03 04:04:29;;;;;;;4.40;0.90;;;11.40;96.70;;;;;;4890052;29;20056;-73
2024/01/03 04:06:59;;;;;;;3.78;1.08;;;11.40;96.70;;;;;;4891342;29;20072;-73
2024/01/03 04:17:08;;;;;;;5.13;1.00;;;11.50;96.70;;;;;;4890296;29;20095;-73
2024/01/03 04:20:34;;;;;;;6.10;1.50;;;11.50;96.70;;;;;;4841199;29;20059;-73
2024/01/03 04:23:10;;;;;;;4.15;1.10;;;11.50;96.70;;;;;;4888783;29;20529;-73
2024/01/03 04:26:52;;;;;;;1.77;0.43;;;11.50;96.70;;;;;;4813372;29;20058;-73
2024/01/03 04:29:21;;;;;;;2.55;1.10;;;11.50;96.70;;;;;;4890610;29;20060;-73
2024/01/03 04:31:50;;;;;;;1.63;0.80;;;11.50;96.70;;;;;;4891335;29;20052;-73
2024/01/03 04:34:19;;;;;;;2.95;0.73;;;11.60;96.70;;;;;;4890535;29;20135;-73
2024/01/03 04:36:50;;;;;;;2.83;0.73;;;11.60;96.70;;;;;;4874016;29;20057;-74
2024/01/03 04:39:20;;;;;;;4.82;1.08;;;11.50;96.70;;;;;;4890968;29;20061;-73
2024/01/03 04:41:49;;;;;;;4.78;0.60;;;11.50;96.70;;;;;;4874893;29;20061;-73
2024/01/03 04:44:19;;;;;;;3.90;1.10;;;11.50;96.70;;;;;;4890309;29;20059;-73
2024/01/03 04:47:01;;;;;;;3.85;0.90;;;11.50;96.70;;;;;;4893313;29;20175;-73
2024/01/03 04:49:38;;;;;;;1.88;0.90;;;11.50;96.70;;;;;;4890553;29;20064;-73
2024/01/03 04:52:13;;;;;;;2.35;0.63;;;11.50;96.70;;;;;;4873255;29;20068;-72
2024/01/03 04:54:42;;;;;;;2.28;0.75;;;11.50;96.70;;;;;;4905037;29;20079;-73
2024/01/03 04:57:14;;;;;;;2.05;0.70;;;11.50;96.70;;;;;;4901498;29;20074;-72
2024/01/03 04:59:48;;;;;;;3.25;0.80;;;11.40;96.70;;;;;;4907611;29;20147;-73
2024/01/03 05:02:28;;;;;;;5.18;0.93;;;11.30;96.70;;;;;;4907834;29;20067;-73
2024/01/03 05:05:19;;;;;;;4.32;0.80;;;11.30;96.70;;;;;;4876346;29;20081;-73
2024/01/03 05:07:52;;;;;;;3.10;0.90;;;11.20;96.70;;;;;;4908049;29;20060;-72
2024/01/03 05:10:22;;;;;;;3.65;0.98;;;11.20;96.70;;;;;;4908645;29;20182;-72
2024/01/03 05:12:51;;;;;;;3.83;0.82;;;11.10;96.70;;;;;;4909034;29;20175;-73
2024/01/03 05:15:21;;;;;;;4.32;0.85;;;11.10;96.70;;;;;;4892586;29;20096;-73
2024/01/03 05:17:51;;;;;;;2.28;1.10;;;11.00;96.70;;;;;;4892499;29;20052;-73
2024/01/03 05:20:20;;;;;;;4.97;0.82;;;11.00;96.70;;;;;;4909028;29;20522;-73
2024/01/03 05:22:51;;;;;;;2.97;0.55;;;10.90;96.70;;;;;;4909144;29;20056;-73
2024/01/03 05:25:20;;;;;;;2.25;0.47;;;10.90;96.70;;;;;;4907749;29;20048;-73
2024/01/03 05:27:49;;;;;;;3.90;1.10;;;10.80;96.70;;;;;;4908153;29;20112;-73
2024/01/03 05:30:46;;;;;;;2.08;0.70;;;10.70;96.70;;;;;;4906087;29;20091;-73
2024/01/03 05:33:16;;;;;;;2.85;0.60;;;10.70;96.70;;;;;;4906401;29;20060;-73
2024/01/03 05:35:54;;;;;;;4.53;1.58;;;10.60;96.70;;;;;;4884816;29;20056;-73
2024/01/03 05:38:37;;;;;;;2.97;0.70;;;10.60;96.70;;;;;;4908461;29;20088;-73
2024/01/03 05:41:15;;;;;;;1.38;0.52;;;10.50;96.70;;;;;;4907750;29;20139;-72
2024/01/03 05:43:59;;;;;;;2.63;0.63;;;10.60;96.70;;;;;;4909474;29;20056;-73
2024/01/03 05:46:35;;;;;;;3.30;0.90;;;10.60;96.70;;;;;;4907360;29;20059;-72
2024/01/03 05:57:26;;;;;;;6.20;1.58;;;10.50;96.70;;;;;;4903772;29;20132;-72
2024/01/03 06:05:20;;;;;;;;;;;;;;;;;;;;;
2024/01/03 06:07:50;;;;;;;3.42;0.65;;;10.60;96.70;;;;;;4884930;29;20510;-72
2024/01/03 06:10:20;;;;;;;5.10;0.57;;;10.60;96.70;;;;;;4909088;29;20060;-72
2024/01/03 06:12:55;;;;;;;4.07;1.10;;;10.70;96.70;;;;;;4908998;29;20148;-72
2024/01/03 06:15:24;;;;;;;3.10;0.75;;;10.80;96.70;;;;;;4907913;29;20067;-72
2024/01/03 06:18:21;;;;;;;2.05;0.85;;;10.90;96.70;;;;;;4901129;29;20119;-72
2024/01/03 06:20:57;;;;;;;4.88;1.17;;;10.90;96.70;;;;;;4908460;29;20066;-72
2024/01/03 06:23:38;;;;;;;6.38;1.90;;;10.80;96.70;;;;;;4907770;29;20716;-73
2024/01/03 06:26:08;;;;;;;1.80;0.80;;;10.80;96.70;;;;;;4902839;29;20059;-72
2024/01/03 06:29:22;;;;;;;5.45;1.10;;;10.80;96.70;;;;;;4896138;29;20064;-73
2024/01/03 06:31:54;;;;;;;2.55;0.70;;;10.90;96.70;;;;;;4911836;29;20064;-72
2024/01/03 06:34:46;;;;;;;4.15;0.70;;;10.90;96.70;;;;;;4911834;29;20059;-72
2024/01/03 06:37:24;;;;;;;3.97;1.00;;;10.90;96.70;;;;;;4908158;29;20060;-72
2024/01/03 06:39:53;;;;;;;4.63;1.10;;;10.80;96.70;;;;;;4908393;29;20060;-73
2024/01/03 06:42:25;;;;;;;4.28;1.20;;;10.80;96.70;;;;;;4911543;29;20147;-72
2024/01/03 06:48:39;;;;;;;5.05;1.10;;;10.80;96.70;;;;;;4904529;29;20060;-73
2024/01/03 06:51:21;;;;;;;4.55;1.10;;;10.80;96.70;;;;;;4911382;29;20060;-73
2024/01/03 06:54:16;;;;;;;3.65;0.95;;;10.80;96.70;;;;;;4911192;29;20067;-73
2024/01/03 06:57:06;;;;;;;3.40;0.75;;;10.80;96.70;;;;;;4909978;29;20056;-73
2024/01/03 06:59:39;;;;;;;2.03;0.68;;;10.80;96.70;;;;;;4910070;29;20475;-73
2024/01/03 07:02:08;;;;;;;4.43;1.30;;;10.80;96.70;;;;;;4911333;29;20064;-73
2024/01/03 07:04:39;;;;;;;4.88;1.50;;;10.90;96.70;;;;;;4910934;29;20088;-76
2024/01/03 07:07:08;;;;;;;3.53;1.00;;;10.90;96.70;;;;;;4896129;29;20378;-73
2024/01/03 07:09:46;;;;;;;4.88;1.70;;;11.00;96.70;;;;;;4893868;29;20052;-73
2024/01/03 07:12:21;;;;;;;5.47;1.48;;;10.90;96.70;;;;;;4910422;29;20071;-73
2024/01/03 07:14:50;;;;;;;5.38;1.73;;;11.00;96.70;;;;;;4905450;29;20056;-73
2024/01/03 07:17:19;;;;;;;4.82;1.60;;;11.00;96.70;;;;;;4910204;29;20422;-74
2024/01/03 07:19:50;;;;;;;5.75;1.73;;;11.10;96.70;;;;;;4892272;29;20060;-74
2024/01/03 07:22:19;;;;;;;11.57;2.13;;;11.10;96.70;;;;;;4887916;29;20140;-74
2024/01/03 07:24:48;;;;;;;4.55;1.95;;;11.20;96.70;;;;;;4903574;29;20076;-74
2024/01/03 07:27:18;;;;;;;13.25;2.35;;;11.20;96.70;;;;;;4910874;29;20163;-74
2024/01/03 07:29:49;;;;;;;15.25;3.80;;;11.30;96.70;;;;;;4911290;29;20099;-74
2024/01/03 07:32:34;;;;;;;4.50;1.92;;;11.30;96.70;;;;;;4866452;29;20110;-74
2024/01/03 07:35:07;;;;;;;6.30;2.05;;;11.40;96.70;;;;;;4910290;29;20488;-73
2024/01/03 07:42:20;;;;;;;5.25;2.13;;;11.50;96.70;;;;;;4866102;29;20191;-72
2024/01/03 07:45:23;;;;;;;6.88;2.83;;;11.50;96.70;;;;;;4870265;29;20752;-73
2024/01/03 07:47:52;;;;;;;14.20;7.40;;;11.60;96.70;;;;;;4909227;29;20108;-73
2024/01/03 07:50:53;;;;;;;15.80;6.63;;;11.60;96.70;;;;;;4894038;29;20059;-72
2024/01/03 07:53:24;;;;;;;13.52;6.57;;;11.60;96.70;;;;;;4910769;29;20068;-69
2024/01/03 07:55:54;;;;;;;12.18;4.05;;;11.60;96.70;;;;;;4910322;29;20116;-73
2024/01/03 07:58:24;;;;;;;9.77;3.03;;;11.70;96.70;;;;;;4891584;29;20095;-72
2024/01/03 08:00:53;;;;;;;9.13;3.17;;;11.80;96.70;;;;;;4908882;29;20079;-74
2024/01/03 08:04:08;;;;;;;11.10;4.68;;;11.80;96.70;;;;;;4903334;29;20056;-73
2024/01/03 08:06:47;;;;;;;8.82;3.10;;;11.90;96.70;;;;;;4903425;29;20533;-72
2024/01/03 08:09:44;;;;;;;7.30;2.63;;;12.00;96.70;;;;;;4899275;29;20056;-72
2024/01/03 08:12:13;;;;;;;6.63;2.17;;;12.10;96.70;;;;;;4909373;29;20060;-73
2024/01/03 08:14:48;;;;;;;9.90;2.20;;;12.20;96.70;;;;;;4892117;29;20059;-72
2024/01/03 08:17:25;;;;;;;8.05;2.25;;;12.20;96.70;;;;;;4903038;29;20553;-73
2024/01/03 08:19:56;;;;;;;4.72;1.98;;;12.20;96.70;;;;;;4909673;29;20155;-73
2024/01/03 08:22:29;;;;;;;6.55;2.03;;;12.20;96.70;;;;;;4909144;29;20056;-73
2024/01/03 08:25:05;;;;;;;6.70;2.28;;;12.30;96.70;;;;;;4909307;29;20064;-73
2024/01/03 08:27:36;;;;;;;;;;;12.40;96.70;;;;;;4909556;29;20418;-73
2024/01/03 08:30:28;;;;;;;5.55;2.15;;;12.40;96.70;;;;;;4909031;29;19922;-72
2024/01/03 08:34:01;;;;;;;4.72;1.92;;;12.40;96.70;;;;;;4909450;29;20051;-73
2024/01/03 08:45:13;;;;;;;5.15;1.30;;;12.60;96.70;;;;;;4860394;29;20737;-72
2024/01/03 08:47:45;;;;;;;5.32;1.58;;;12.60;96.70;;;;;;4897033;29;20051;-72
2024/01/03 08:50:43;;;;;;;7.18;1.45;;;12.70;96.70;;;;;;4890977;29;20087;-73
2024/01/03 08:53:15;;;;;;;4.68;1.67;;;12.80;96.70;;;;;;4910676;29;20060;-73
2024/01/03 08:56:18;;;;;;;4.65;1.60;;;12.90;96.70;;;;;;4904179;29;20060;-73
2024/01/03 08:59:06;;;;;;;5.10;1.67;;;12.90;96.70;;;;;;4906377;29;20060;-73
2024/01/03 09:01:36;;;;;;;4.60;1.67;;;12.90;96.70;;;;;;4868838;29;20111;-73
2024/01/03 09:15:44;;;;;;;4.72;1.38;;;13.40;96.70;;;;;;4885333;29;20050;-72
2024/01/03 09:18:17;;;;;;;7.28;1.63;;;13.40;96.70;;;;;;4908603;29;20051;-73
2024/01/03 09:20:48;;;;;;;7.25;1.88;;;13.50;96.70;;;;;;4908697;29;20056;-73
2024/01/03 09:23:19;;;;;;;10.40;1.45;;;13.50;96.70;;;;;;4901170;29;20066;-72
2024/01/03 09:25:49;;;;;;;4.72;1.40;;;13.50;96.70;;;;;;4891225;29;20052;-72
2024/01/03 09:28:19;;;;;;;7.68;2.30;;;13.50;96.70;;;;;;4907986;29;20203;-73
2024/01/03 09:31:39;;;;;;;7.15;2.58;;;13.60;96.70;;;;;;4907703;29;20140;-73
2024/01/03 09:34:57;;;;;;;8.38;2.70;;;13.80;96.70;;;;;;4912839;29;20062;-73
2024/01/03 09:37:29;;;;;;;11.50;3.85;;;14.00;96.70;;;;;;4915270;29;20063;-73
2024/01/03 09:39:59;;;;;;;8.85;3.22;;;14.10;96.70;;;;;;4907909;29;20091;-73
2024/01/03 09:42:30;;;;;;;9.10;2.65;;;14.20;96.70;;;;;;4905527;29;20135;-73
2024/01/03 09:45:01;;;;;;;6.25;2.22;;;14.30;96.70;;;;;;4890942;29;20068;-72
2024/01/03 09:47:34;;;;;;;5.88;1.80;;;14.30;96.70;;;;;;4906959;29;20095;-73
2024/01/03 09:50:50;;;;;;;7.75;2.00;;;14.30;96.70;;;;;;4906587;29;20052;-73
2024/01/03 09:53:22;;;;;;;6.20;1.67;;;14.40;96.70;;;;;;4900129;29;20044;-71
2024/01/03 09:56:29;;;;;;;8.27;1.75;;;14.50;96.70;;;;;;4892137;29;20581;-72
2024/01/03 09:58:59;;;;;;;4.93;1.95;;;14.70;96.70;;;;;;4911979;29;20523;-80
2024/01/03 10:01:30;;;;;;;8.68;1.67;;;14.90;96.70;;;;;;4911127;29;20176;-76
2024/01/03 10:03:59;;;;;;;5.82;1.88;;;15.00;96.70;;;;;;4915247;29;20066;-75
2024/01/03 10:06:30;;;;;;;20.70;11.20;;;14.90;96.70;;;;;;4917521;29;20116;-76
2024/01/03 10:09:03;;;;;;;8.27;3.65;;;14.80;96.70;;;;;;4911749;29;20846;-75
2024/01/03 10:11:34;;;;;;;7.55;2.55;;;14.80;96.70;;;;;;4911616;29;20071;-75
2024/01/03 10:14:16;;;;;;;4.97;2.17;;;14.90;96.70;;;;;;4912057;29;20062;-75
2024/01/03 10:16:47;;;;;;;6.38;2.17;;;15.20;96.70;;;;;;4910729;29;20135;-75
2024/01/03 10:19:17;;;;;;;7.05;1.77;;;15.30;96.70;;;;;;4890938;29;20086;-75
2024/01/03 10:21:51;;;;;;;6.65;1.50;;;15.30;96.70;;;;;;4910339;29;20098;-75
2024/01/03 10:24:27;;;;;;;10.95;2.20;;;15.30;96.70;;;;;;4905644;29;20060;-74
2024/01/03 10:27:11;;;;;;;5.63;1.63;;;15.20;96.70;;;;;;4912328;29;20060;-74
2024/01/03 10:29:41;;;;;;;7.03;1.70;;;15.10;96.70;;;;;;4901830;29;20291;-75
2024/01/03 10:32:15;;;;;;;6.75;2.00;;;15.10;96.70;;;;;;4911999;29;20059;-75
2024/01/03 10:34:44;;;;;;;9.00;2.13;;;15.20;96.70;;;;;;4912227;29;20138;-74
2024/01/03 10:37:16;;;;;;;6.13;1.98;;;15.20;96.70;;;;;;4909352;29;20155;-75
2024/01/03 10:39:49;;;;;;;6.47;1.63;;;15.30;96.70;;;;;;4910371;29;20052;-74
2024/01/03 10:42:19;;;;;;;5.25;1.70;;;15.30;96.70;;;;;;4894672;29;20060;-74
2024/01/03 10:44:48;;;;;;;5.60;1.60;;;15.40;96.70;;;;;;4910292;29;20064;-74
2024/01/03 10:47:17;;;;;;;9.68;1.83;;;15.50;96.70;;;;;;4899175;29;20445;-74
2024/01/03 10:49:46;;;;;;;7.57;1.75;;;15.70;96.70;;;;;;4892275;29;20058;-74
2024/01/03 10:52:20;;;;;;;9.13;1.77;;;15.70;96.70;;;;;;4882566;29;20079;-76
2024/01/03 10:54:53;;;;;;;6.75;2.13;;;15.80;96.70;;;;;;4882583;29;20061;-75
2024/01/03 10:57:26;;;;;;;8.98;3.70;;;15.80;96.70;;;;;;4879114;29;20053;-75
2024/01/03 11:00:07;;;;;;;8.50;2.90;;;15.90;96.70;;;;;;4892272;29;20120;-75
2024/01/03 11:02:42;;;;;;;7.30;2.40;;;15.80;96.70;;;;;;4892073;29;20287;-75
2024/01/03 11:05:23;;;;;;;4.55;1.85;;;15.70;96.70;;;;;;4892547;29;20098;-76
2024/01/03 11:07:56;;;;;;;6.28;1.80;;;15.60;96.70;;;;;;4892172;29;20052;-74
2024/01/03 11:10:50;;;;;;;7.32;1.90;;;15.60;96.70;;;;;;4888444;29;20059;-74
2024/01/03 11:13:27;;;;;;;8.15;3.25;;;15.70;96.70;;;;;;4886265;29;20080;-75
2024/01/03 11:15:58;;;;;;;6.65;2.78;;;15.70;96.70;;;;;;4890594;29;20120;-74
2024/01/03 11:18:49;;;;;;;10.13;2.38;;;15.70;96.70;;;;;;4895293;29;20056;-74
2024/01/03 11:21:50;;;;;;;8.48;2.20;;;15.60;96.70;;;;;;4890532;29;20087;-74
2024/01/03 11:25:04;;;;;;;5.22;1.77;;;15.70;96.70;;;;;;4891471;29;20061;-73
2024/01/03 11:27:38;;;;;;;7.15;1.75;;;15.70;96.70;;;;;;4877811;29;20065;-74
2024/01/03 11:30:56;;;;;;;6.35;2.13;;;15.70;96.70;;;;;;4884314;29;20121;-74
2024/01/03 11:33:31;;;;;;;8.70;1.95;;;15.60;96.70;;;;;;4891705;29;20085;-74
2024/01/03 11:36:01;;;;;;;20.63;12.27;;;15.70;96.70;;;;;;4892255;29;20471;-73
2024/01/03 11:38:40;;;;;;;9.98;3.55;;;15.80;96.70;;;;;;4874086;29;20056;-73
2024/01/03 11:41:16;;;;;;;8.18;3.08;;;15.80;96.70;;;;;;4874372;29;20061;-73
2024/01/03 11:43:47;;;;;;;7.30;3.03;;;15.80;96.70;;;;;;4875590;29;20068;-75
2024/01/03 11:46:19;;;;;;;5.82;2.72;;;15.80;96.70;;;;;;4891198;29;20077;-75
2024/01/03 11:49:17;;;;;;;12.52;2.88;;;15.80;96.70;;;;;;4888748;29;20638;-76
2024/01/03 11:52:27;;;;;;;10.27;2.60;;;15.80;96.70;;;;;;4883860;29;20067;-74
2024/01/03 11:55:17;;;;;;;;;;;;;;;;;;;;;
2024/01/03 11:57:49;;;;;;;7.15;2.20;;;15.80;96.70;;;;;;4887150;29;20530;-74
2024/01/03 12:00:23;;;;;;;11.40;3.10;;;15.80;96.70;;;;;;4878798;29;20547;-74
2024/01/03 12:02:53;;;;;;;10.70;3.08;;;16.00;96.70;;;;;;4890497;29;20076;-76
2024/01/03 12:05:25;;;;;;;7.18;2.47;;;16.00;96.70;;;;;;4890899;29;20058;-74
2024/01/03 12:07:57;;;;;;;8.90;2.55;;;16.00;96.70;;;;;;4891166;29;20523;-74
2024/01/03 12:10:28;;;;;;;8.30;2.55;;;16.00;96.70;;;;;;4871624;29;20804;-74
2024/01/03 12:13:01;;;;;;;9.90;3.85;;;15.90;96.70;;;;;;4888969;29;20056;-74
2024/01/03 12:15:33;;;;;;;7.28;2.92;;;15.80;96.70;;;;;;4890257;29;20067;-76
2024/01/03 12:18:16;;;;;;;8.40;3.30;;;15.80;96.70;;;;;;4881360;29;20060;-77
2024/01/03 12:20:44;;;;;;;13.13;3.13;;;15.80;96.70;;;;;;4888834;29;20056;-76
2024/01/03 12:23:14;;;;;;;11.10;2.88;;;15.70;96.70;;;;;;4890442;29;20062;-76
2024/01/03 12:25:45;;;;;;;12.52;3.33;;;15.70;96.70;;;;;;4890164;29;20626;-77
2024/01/03 12:28:19;;;;;;;11.48;4.47;;;15.80;96.70;;;;;;4889809;29;20095;-74
2024/01/03 12:30:50;;;;;;;13.75;4.93;;;15.90;96.70;;;;;;4858515;29;20565;-75
2024/01/03 12:33:24;;;;;;;9.30;3.30;;;15.90;96.70;;;;;;4890571;29;20080;-74
2024/01/03 12:36:00;;;;;;;11.85;3.03;;;16.00;96.70;;;;;;4883558;29;21315;-76
2024/01/03 12:38:30;;;;;;;13.60;4.68;;;16.00;96.70;;;;;;4889784;29;20077;-76
2024/01/03 12:40:58;;;;;;;17.42;4.10;;;16.00;96.70;;;;;;4890323;29;20066;-77
2024/01/03 12:43:29;;;;;;;12.90;3.88;;;15.90;96.70;;;;;;4890345;29;20619;-76
2024/01/03 12:45:59;;;;;;;9.65;3.38;;;16.00;96.70;;;;;;4877195;29;20056;-76
2024/01/03 12:48:28;;;;;;;15.20;3.83;;;16.10;96.70;;;;;;4905991;29;20063;-76
2024/01/03 12:50:57;;;;;;;11.90;3.10;;;16.20;96.70;;;;;;4908216;29;20060;-77
2024/01/03 12:53:26;;;;;;;10.38;3.03;;;16.20;96.70;;;;;;4909208;29;20794;-76
2024/01/03 12:55:55;;;;;;;9.73;3.20;;;16.20;96.70;;;;;;4902184;29;20052;-77
2024/01/03 12:58:24;;;;;;;13.65;4.75;;;16.20;96.70;;;;;;4908297;29;20579;-76
2024/01/03 13:00:55;;;;;;;12.20;3.40;;;16.20;96.70;;;;;;4908385;29;20056;-76
2024/01/03 13:03:25;;;;;;;15.18;3.67;;;16.10;96.70;;;;;;4908294;29;20058;-77
2024/01/03 13:05:54;;;;;;;13.73;4.05;;;16.10;96.70;;;;;;4905860;29;20064;-77
2024/01/03 13:08:24;;;;;;;13.18;3.63;;;16.20;96.70;;;;;;4908293;29;20052;-78
2024/01/03 13:10:53;;;;;;;13.35;3.50;;;16.20;96.70;;;;;;4891337;29;20171;-79
2024/01/03 13:13:23;;;;;;;12.40;2.97;;;16.30;96.70;;;;;;4908709;29;20052;-79
2024/01/03 13:15:51;;;;;;;11.60;3.45;;;16.30;96.70;;;;;;4908619;29;20060;-80
2024/01/03 13:18:20;;;;;;;13.75;4.80;;;16.30;96.70;;;;;;4909095;29;20171;-80
2024/01/03 13:20:52;;;;;;;10.70;3.42;;;16.30;96.70;;;;;;4909095;29;20490;-79
2024/01/03 13:23:20;;;;;;;8.50;2.80;;;16.30;96.70;;;;;;4908727;29;20411;-77
2024/01/03 13:25:50;;;;;;;13.00;3.60;;;16.30;96.70;;;;;;4908884;29;20197;-77
2024/01/03 13:28:19;;;;;;;9.32;2.95;;;16.30;96.70;;;;;;4906970;29;20056;-79
2024/01/03 13:30:47;;;;;;;10.63;2.90;;;16.30;96.70;;;;;;4904574;29;20087;-77
2024/01/03 13:33:15;;;;;;;19.08;3.17;;;16.30;96.70;;;;;;4909372;29;20068;-78
2024/01/03 13:35:44;;;;;;;18.33;2.97;;;16.30;96.70;;;;;;4902347;29;20517;-78
2024/01/03 13:38:14;;;;;;;16.85;3.85;;;16.30;96.70;;;;;;4905159;29;20111;-78
2024/01/03 13:40:46;;;;;;;15.43;6.22;;;16.20;96.70;;;;;;4905364;29;20549;-76
2024/01/03 13:43:14;;;;;;;17.95;3.78;;;16.20;96.70;;;;;;4909823;29;20060;-75
2024/01/03 13:45:43;;;;;;;15.52;5.63;;;16.10;96.70;;;;;;4900555;29;20714;-76
2024/01/03 13:56:12;;;;;;;19.27;3.08;;;16.00;96.70;;;;;;4895833;29;20043;-74
2024/01/03 13:58:48;;;;;;;15.98;3.58;;;16.00;96.70;;;;;;4902988;29;20518;-75
2024/01/03 14:02:25;;;;;;;18.42;3.13;;;16.00;96.70;;;;;;4909088;29;20323;-75
2024/01/03 14:05:15;;;;;;;14.82;2.90;;;16.00;96.70;;;;;;4911884;29;20052;-73
2024/01/03 14:07:44;;;;;;;13.57;3.47;;;16.00;96.70;;;;;;4911049;29;20509;-75
2024/01/03 14:11:33;;;;;;;;;;;;;;;;;;;;;
2024/01/03 14:20:35;;;;;;;9.52;2.50;;;15.90;96.70;;;;;;4911581;29;20069;-75
2024/01/03 14:23:52;;;;;;;;;;;;;;;;;;;;;
2024/01/03 14:26:31;;;;;;;14.43;3.00;;;15.80;96.70;;;;;;4842016;29;20060;-75
2024/01/03 14:29:05;;;;;;;11.00;2.72;;;15.80;96.70;;;;;;4872958;29;20052;-75
2024/01/03 14:31:37;;;;;;;9.65;2.55;;;15.80;96.70;;;;;;4910773;29;20527;-75
2024/01/03 14:34:15;;;;;;;11.93;3.72;;;15.80;96.70;;;;;;4894506;29;20060;-75
2024/01/03 14:37:30;;;;;;;12.57;2.60;;;15.70;96.70;;;;;;4905013;29;20056;-75
2024/01/03 14:42:50;;;;;;;12.75;3.10;;;15.70;96.70;;;;;;4909281;29;20063;-76
2024/01/03 14:45:22;;;;;;;12.45;2.70;;;15.70;96.70;;;;;;4894608;29;20067;-74
2024/01/03 14:47:51;;;;;;;13.98;2.80;;;15.60;96.70;;;;;;4878908;29;20659;-76
2024/01/03 14:50:21;;;;;;;11.68;2.70;;;15.60;96.70;;;;;;4894643;29;20060;-75
2024/01/03 14:53:21;;;;;;;17.77;4.03;;;15.60;96.70;;;;;;4889643;29;20052;-76
2024/01/03 14:55:51;;;;;;;10.95;2.60;;;15.60;96.70;;;;;;4903375;29;20059;-75
2024/01/03 15:01:57;;;;;;;9.90;2.50;;;15.50;96.70;;;;;;4896349;29;20564;-76
2024/01/03 15:04:25;;;;;;;12.55;2.67;;;15.50;96.70;;;;;;4910117;29;20067;-76
2024/01/03 15:13:09;;;;;;;10.85;2.33;;;15.40;96.70;;;;;;4884614;29;20111;-76
2024/01/03 15:15:42;;;;;;;11.43;2.25;;;15.40;96.70;;;;;;4905520;29;20063;-76
2024/01/03 15:18:11;;;;;;;10.02;2.38;;;15.40;96.70;;;;;;4892850;29;20078;-75
2024/01/03 15:20:48;;;;;;;14.55;3.20;;;15.30;96.70;;;;;;4895464;29;20155;-76
2024/01/03 15:23:24;;;;;;;9.60;2.47;;;15.40;96.70;;;;;;4890410;29;20056;-74
2024/01/03 15:25:57;;;;;;;17.52;2.83;;;15.30;96.70;;;;;;4898767;29;20060;-75
2024/01/03 15:28:53;;;;;;;12.27;2.67;;;15.30;96.70;;;;;;4910860;29;20063;-75
2024/01/03 15:31:28;;;;;;;7.68;2.47;;;15.30;96.70;;;;;;4876652;29;20059;-75
2024/01/03 15:37:33;;;;;;;12.35;4.35;;;15.30;96.70;;;;;;4904729;29;20065;-74
2024/01/03 15:40:16;;;;;;;12.20;3.58;;;15.20;96.70;;;;;;4886146;29;20109;-73
2024/01/03 15:42:49;;;;;;;10.57;3.35;;;15.30;96.70;;;;;;4917078;29;20063;-74
2024/01/03 15:45:18;;;;;;;20.27;3.78;;;15.20;96.70;;;;;;4889855;29;20060;-74
2024/01/03 15:47:47;;;;;;;12.70;2.88;;;15.20;96.70;;;;;;4901995;29;20514;-73
2024/01/03 15:50:17;;;;;;;10.80;2.72;;;15.10;96.70;;;;;;4886803;29;20074;-74
2024/01/03 15:52:46;;;;;;;13.95;4.00;;;15.10;96.70;;;;;;4892990;29;20059;-74
2024/01/03 15:55:27;;;;;;;13.20;3.78;;;15.20;96.70;;;;;;4892641;29;20055;-74
2024/01/03 15:57:59;;;;;;;13.93;2.95;;;15.10;96.70;;;;;;4906316;29;20084;-74
2024/01/03 16:00:28;;;;;;;12.85;5.78;;;15.00;96.70;;;;;;4892632;29;20067;-74
2024/01/03 16:02:57;;;;;;;11.43;4.88;;;15.00;96.70;;;;;;4877686;29;20087;-74
2024/01/03 16:05:27;;;;;;;16.10;4.07;;;14.90;96.70;;;;;;4893243;29;20115;-74
2024/01/03 16:08:00;;;;;;;19.48;4.90;;;14.90;96.70;;;;;;4892627;29;20179;-74
2024/01/03 16:10:32;;;;;;;13.63;4.25;;;14.80;96.70;;;;;;4892573;29;20155;-74
2024/01/03 16:13:02;;;;;;;15.20;5.00;;;14.80;96.70;;;;;;4892839;29;20063;-74
2024/01/03 16:15:32;;;;;;;11.27;3.58;;;14.70;96.70;;;;;;4900737;29;20174;-74
2024/01/03 16:18:05;;;;;;;12.52;4.40;;;14.70;96.70;;;;;;4908440;29;20083;-75
2024/01/03 16:24:31;;;;;;;11.38;4.20;;;14.60;96.70;;;;;;4910088;29;20078;-74
2024/01/03 16:28:01;;;;;;;;;;;;;;;;;;;;;
2024/01/03 16:30:43;;;;;;;;;;;;;;;;;;;;;
2024/01/03 16:33:54;;;;;;;15.30;4.70;;;14.50;96.70;;;;;;4919613;29;20063;-75
2024/01/03 16:37:27;;;;;;;24.30;11.73;;;14.40;96.70;;;;;;4868558;29;20060;-75
2024/01/03 17:02:26;;;;;;;12.73;2.60;;;14.30;96.70;;;;;;4891109;29;20051;-73
2024/01/03 17:04:59;;;;;;;10.77;2.92;;;14.40;96.70;;;;;;4881724;29;20072;-74
2024/01/03 17:07:28;;;;;;;12.98;2.83;;;14.40;96.70;;;;;;4891481;29;20060;-73
2024/01/03 17:10:02;;;;;;;7.55;2.10;;;14.40;96.70;;;;;;4884189;29;20060;-75
2024/01/03 17:12:33;;;;;;;9.98;2.20;;;14.40;96.70;;;;;;4864432;29;20075;-74
2024/01/03 17:15:02;;;;;;;11.65;2.83;;;14.30;96.70;;;;;;4882394;29;20098;-75